Time;durP1;ratioP1;P1;durP2;ratioP2;P2;SDS_P1;SDS_P2;PMS_P1;PMS_P2;Temp;Humidity;BMP_temperature;BMP_pressure;BME280_temperature;BME280_humidity;BME280_pressure;Samples;Min_cycle;Max_cycle;Signal;HPM_P1;HPM_P2
2023/06/04 00:00:16;;;;;;;;;;;25.50;52.30;;;;;;5084000;27;43047;-75
2023/06/04 00:02:42;;;;;;;;;;;25.60;52.80;;;;;;5087149;27;43507;-75
2023/06/04 00:05:07;;;;;;;;;;;25.60;52.80;;;;;;5095642;27;43031;-75
2023/06/04 00:07:33;;;;;;;;;;;25.60;52.80;;;;;;5092570;27;43435;-79
2023/06/04 00:09:58;;;;;;;;;;;25.60;52.80;;;;;;5087831;27;43016;-74
2023/06/04 00:12:24;;;;;;;;;;;25.60;52.90;;;;;;5100649;27;43652;-76
2023/06/04 00:14:49;;;;;;;;;;;25.60;52.90;;;;;;5094438;27;43026;-75
2023/06/04 00:17:15;;;;;;;;;;;25.60;53.00;;;;;;5105590;27;43371;-74
2023/06/04 00:19:41;;;;;;;;;;;25.60;52.50;;;;;;5097654;27;43049;-76
2023/06/04 00:22:06;;;;;;;;;;;25.60;53.00;;;;;;5087620;27;43519;-74
2023/06/04 00:24:32;;;;;;;;;;;25.60;53.10;;;;;;5088055;27;42935;-74
2023/06/04 00:26:58;;;;;;;;;;;25.60;52.70;;;;;;5086806;27;43986;-75
2023/06/04 00:29:23;;;;;;;;;;;25.60;53.10;;;;;;5087347;27;42946;-79
2023/06/04 00:31:49;;;;;;;;;;;25.50;52.60;;;;;;5098896;27;43063;-74
2023/06/04 00:34:14;;;;;;;;;;;25.50;53.10;;;;;;5088032;27;42921;-74
2023/06/04 00:36:40;;;;;;;;;;;25.50;52.60;;;;;;5099587;27;42943;-74
2023/06/04 00:39:06;;;;;;;;;;;25.50;52.70;;;;;;5087462;27;43045;-76
2023/06/04 00:41:31;;;;;;;;;;;25.50;52.70;;;;;;5087527;27;43082;-74
2023/06/04 00:43:57;;;;;;;;;;;25.50;52.70;;;;;;5087519;27;43065;-73
2023/06/04 00:46:25;;;;;;;;;;;25.50;52.60;;;;;;5094421;27;43104;-75
2023/06/04 00:48:50;;;;;;;;;;;25.50;53.10;;;;;;5093120;27;42918;-77
2023/06/04 00:51:16;;;;;;;;;;;25.50;53.10;;;;;;5091945;27;43271;-74
2023/06/04 00:53:41;;;;;;;;;;;25.50;53.10;;;;;;5098581;27;42912;-75
2023/06/04 00:56:07;;;;;;;;;;;25.50;53.60;;;;;;5099129;27;42930;-75
2023/06/04 00:58:43;;;;;;;;;;;25.50;53.10;;;;;;5098351;27;42831;-75
2023/06/04 01:01:32;;;;;;;;;;;25.50;53.10;;;;;;5084564;27;43715;-78
2023/06/04 01:03:59;;;;;;;;;;;25.50;52.60;;;;;;5097893;27;43457;-78
2023/06/04 01:06:35;;;;;;;;;;;25.50;52.60;;;;;;5087408;27;43060;-76
2023/06/04 01:09:02;;;;;;;;;;;25.50;53.10;;;;;;5086437;27;42873;-74
2023/06/04 01:11:32;;;;;;;;;;;25.50;53.10;;;;;;5091678;27;43938;-74
2023/06/04 01:13:57;;;;;;;;;;;25.50;53.10;;;;;;5090103;27;43031;-76
2023/06/04 01:16:23;;;;;;;;;;;25.50;53.10;;;;;;5105086;27;43646;-75
2023/06/04 01:18:51;;;;;;;;;;;25.50;52.70;;;;;;5105233;27;42923;-75
2023/06/04 01:21:18;;;;;;;;;;;25.50;53.10;;;;;;5105322;27;43958;-75
2023/06/04 01:23:58;;;;;;;;;;;25.50;53.20;;;;;;5059120;28;42863;-76
2023/06/04 01:26:27;;;;;;;;;;;25.40;52.60;;;;;;5085060;28;42876;-78
2023/06/04 01:28:54;;;;;;;;;;;25.50;53.20;;;;;;5068457;28;43041;-74
2023/06/04 01:31:22;;;;;;;;;;;25.50;53.20;;;;;;5064954;28;44285;-74
2023/06/04 01:33:55;;;;;;;;;;;25.40;53.20;;;;;;5077363;28;43174;-74
2023/06/04 01:36:21;;;;;;;;;;;25.40;53.20;;;;;;5066622;28;43167;-75
2023/06/04 01:38:47;;;;;;;;;;;25.50;53.30;;;;;;5066349;28;42856;-75
2023/06/04 01:41:13;;;;;;;;;;;25.50;52.80;;;;;;5077347;28;43956;-74
2023/06/04 01:43:38;;;;;;;;;;;25.50;53.20;;;;;;5067205;28;43070;-77
2023/06/04 01:46:04;;;;;;;;;;;25.50;53.30;;;;;;5065874;28;42981;-76
2023/06/04 01:48:31;;;;;;;;;;;25.40;52.80;;;;;;5065792;28;43019;-74
2023/06/04 01:50:57;;;;;;;;;;;25.40;52.80;;;;;;5065371;28;43794;-75
2023/06/04 01:53:23;;;;;;;;;;;25.40;52.90;;;;;;5083800;28;42890;-78
2023/06/04 01:55:49;;;;;;;;;;;25.50;52.90;;;;;;5072760;28;43090;-75
2023/06/04 01:58:17;;;;;;;;;;;25.50;53.40;;;;;;5069284;28;42970;-75
2023/06/04 02:00:43;;;;;;;;;;;25.40;52.80;;;;;;5083629;28;43490;-74
2023/06/04 02:03:10;;;;;;;;;;;25.40;53.30;;;;;;5079417;28;43069;-77
2023/06/04 02:05:36;;;;;;;;;;;25.40;52.80;;;;;;5065920;28;43681;-73
2023/06/04 02:08:04;;;;;;;;;;;25.40;53.80;;;;;;5064377;28;42919;-77
2023/06/04 02:10:30;;;;;;;;;;;25.40;52.80;;;;;;5064765;28;42946;-77
2023/06/04 02:12:57;;;;;;;;;;;25.40;53.20;;;;;;5070148;28;43030;-77
2023/06/04 02:15:23;;;;;;;;;;;25.40;52.70;;;;;;5077800;28;44172;-78
2023/06/04 02:17:50;;;;;;;;;;;25.40;53.20;;;;;;5070467;28;43120;-74
2023/06/04 02:20:16;;;;;;;;;;;25.40;53.20;;;;;;5068861;28;45291;-77
2023/06/04 02:22:42;;;;;;;;;;;25.40;53.20;;;;;;5078507;27;43058;-74
2023/06/04 02:25:09;;;;;;;;;;;25.40;52.70;;;;;;5100168;27;43076;-78
2023/06/04 02:27:35;;;;;;;;;;;25.40;53.30;;;;;;5091084;27;42970;-80
2023/06/04 02:30:01;;;;;;;;;;;25.40;52.80;;;;;;5102804;27;42932;-80
2023/06/04 02:32:28;;;;;;;;;;;25.40;53.30;;;;;;5087023;27;43126;-78
2023/06/04 02:34:55;;;;;;;;;;;25.40;52.80;;;;;;5075229;27;45271;-75
2023/06/04 02:37:21;;;;;;;;;;;27.80;55.00;;;;;;5087061;27;43224;-79
2023/06/04 02:39:46;;;;;;;;;;;25.40;52.90;;;;;;5095166;27;43690;-79
2023/06/04 02:42:12;;;;;;;;;;;25.40;53.00;;;;;;5084839;27;42871;-73
2023/06/04 02:44:37;;;;;;;;;;;25.40;53.40;;;;;;5085951;27;43596;-74
2023/06/04 02:47:03;;;;;;;;;;;25.40;53.50;;;;;;5089305;27;43113;-75
2023/06/04 02:49:29;;;;;;;;;;;25.40;53.10;;;;;;5100240;27;43780;-74
2023/06/04 02:51:54;;;;;;;;;;;25.40;53.60;;;;;;5089463;27;42974;-75
2023/06/04 02:54:20;;;;;;;;;;;25.40;53.10;;;;;;5099808;27;42941;-76
2023/06/04 02:56:45;;;;;;;;;;;25.40;53.60;;;;;;5092748;27;43053;-74
2023/06/04 02:59:11;;;;;;;;;;;25.40;53.20;;;;;;5083611;27;42839;-74
2023/06/04 03:01:36;;;;;;;;;;;25.40;53.20;;;;;;5093293;27;42888;-74
2023/06/04 03:04:04;;;;;;;;;;;25.40;53.20;;;;;;5090362;27;43042;-75
2023/06/04 03:06:32;;;;;;;;;;;25.40;53.20;;;;;;5094539;27;43116;-75
2023/06/04 03:08:57;;;;;;;;;;;25.40;53.70;;;;;;5099651;27;42740;-76
2023/06/04 03:11:23;;;;;;;;;;;25.40;53.60;;;;;;5096715;27;43055;-74
2023/06/04 03:13:49;;;;;;;;;;;25.40;53.20;;;;;;5085668;27;43055;-75
2023/06/04 03:16:14;;;;;;;;;;;25.40;53.20;;;;;;5096248;27;42938;-75
2023/06/04 03:18:40;;;;;;;;;;;25.40;53.10;;;;;;5086551;27;43062;-74
2023/06/04 03:21:06;;;;;;;;;;;25.40;53.20;;;;;;5083447;27;43527;-76
2023/06/04 03:23:33;;;;;;;;;;;25.40;53.20;;;;;;5086372;27;42914;-75
2023/06/04 03:25:58;;;;;;;;;;;25.40;53.20;;;;;;5088792;27;43145;-74
2023/06/04 03:28:24;;;;;;;;;;;25.40;53.70;;;;;;5079534;27;43935;-74
2023/06/04 03:30:49;;;;;;;;;;;25.40;53.20;;;;;;5098867;27;42943;-76
2023/06/04 03:33:15;;;;;;;;;;;25.40;53.70;;;;;;5090358;27;43094;-74
2023/06/04 03:35:42;;;;;;;;;;;25.40;53.60;;;;;;5084876;27;60062;-75
2023/06/04 03:38:08;;;;;;;;;;;25.40;53.20;;;;;;5095343;27;43064;-74
2023/06/04 03:40:33;;;;;;;;;;;25.40;53.70;;;;;;5105212;27;42937;-75
2023/06/04 03:43:00;;;;;;;;;;;25.40;53.70;;;;;;5102827;27;43436;-74
2023/06/04 03:45:25;;;;;;;;;;;25.40;53.20;;;;;;5105028;27;42902;-74
2023/06/04 03:47:51;;;;;;;;;;;25.40;53.70;;;;;;5102173;27;43797;-75
2023/06/04 03:50:17;;;;;;;;;;;25.40;53.30;;;;;;5102629;27;43025;-75
2023/06/04 03:52:43;;;;;;;;;;;25.40;53.30;;;;;;5090308;27;44225;-78
2023/06/04 03:55:08;;;;;;;;;;;25.40;53.70;;;;;;5083205;27;42977;-74
2023/06/04 03:57:34;;;;;;;;;;;25.40;53.70;;;;;;5097258;27;42939;-74
2023/06/04 04:00:00;;;;;;;;;;;25.40;53.20;;;;;;5107277;27;43137;-74
2023/06/04 04:02:25;;;;;;;;;;;25.40;53.70;;;;;;5095488;27;44486;-74
2023/06/04 04:04:54;;;;;;;;;;;25.40;53.70;;;;;;5094807;27;43102;-74
2023/06/04 04:07:20;;;;;;;;;;;25.40;53.30;;;;;;5094589;27;43372;-75
2023/06/04 04:09:46;;;;;;;;;;;25.40;53.30;;;;;;5093340;27;43917;-74
2023/06/04 04:12:11;;;;;;;;;;;25.40;53.50;;;;;;5099572;27;43668;-75
2023/06/04 04:14:37;;;;;;;;;;;25.30;53.30;;;;;;5101050;27;42955;-75
2023/06/04 04:17:02;;;;;;;;;;;25.40;53.80;;;;;;5076342;27;43002;-74
2023/06/04 04:19:28;;;;;;;;;;;25.30;53.30;;;;;;5097410;27;43081;-73
2023/06/04 04:21:54;;;;;;;;;;;25.40;53.40;;;;;;5094240;27;43680;-74
2023/06/04 04:24:26;;;;;;;;;;;25.40;53.30;;;;;;5100672;27;42914;-73
2023/06/04 04:26:54;;;;;;;;;;;25.40;53.70;;;;;;5106790;27;42907;-75
2023/06/04 04:29:24;;;;;;;;;;;25.40;53.70;;;;;;5103810;27;42928;-74
2023/06/04 04:31:53;;;;;;;;;;;25.40;53.30;;;;;;5089975;27;43222;-74
2023/06/04 04:34:21;;;;;;;;;;;25.40;53.30;;;;;;5086726;27;42866;-74
2023/06/04 04:36:51;;;;;;;;;;;25.40;53.30;;;;;;5089018;27;42959;-74
2023/06/04 04:39:19;;;;;;;;;;;25.40;53.70;;;;;;5103980;27;42964;-75
2023/06/04 04:41:44;;;;;;;;;;;25.40;53.70;;;;;;5099022;27;43654;-74
2023/06/04 04:44:10;;;;;;;;;;;25.40;53.30;;;;;;5091093;27;43159;-75
2023/06/04 04:46:35;;;;;;;;;;;25.40;53.70;;;;;;5091613;27;43626;-73
2023/06/04 04:49:01;;;;;;;;;;;25.40;53.30;;;;;;5102273;27;42942;-74
2023/06/04 04:51:27;;;;;;;;;;;25.40;53.30;;;;;;5086182;27;42974;-75
2023/06/04 04:53:54;;;;;;;;;;;25.40;53.80;;;;;;5088592;27;43041;-74
2023/06/04 04:56:20;;;;;;;;;;;25.40;53.30;;;;;;5097289;27;43626;-75
2023/06/04 04:58:45;;;;;;;;;;;25.40;53.80;;;;;;5093186;27;43134;-80
2023/06/04 05:01:11;;;;;;;;;;;25.40;53.80;;;;;;5096322;27;42923;-73
2023/06/04 05:03:36;;;;;;;;;;;25.40;53.80;;;;;;5092957;27;43174;-74
2023/06/04 05:06:02;;;;;;;;;;;25.40;53.80;;;;;;5098214;27;43468;-75
2023/06/04 05:08:27;;;;;;;;;;;25.40;53.30;;;;;;5089155;27;42982;-75
2023/06/04 05:10:53;;;;;;;;;;;25.40;53.80;;;;;;5085521;27;42970;-77
2023/06/04 05:13:19;;;;;;;;;;;25.40;53.30;;;;;;5098222;27;43063;-78
2023/06/04 05:15:45;;;;;;;;;;;25.40;53.40;;;;;;5099141;27;43021;-76
2023/06/04 05:18:10;;;;;;;;;;;25.40;53.90;;;;;;5095918;27;42929;-75
2023/06/04 05:20:37;;;;;;;;;;;25.40;53.90;;;;;;5095182;27;43644;-78
2023/06/04 05:23:03;;;;;;;;;;;25.40;53.90;;;;;;5101421;27;43144;-79
2023/06/04 05:25:29;;;;;;;;;;;25.40;53.90;;;;;;5096683;27;43391;-78
2023/06/04 05:27:58;;;;;;;;;;;25.40;53.90;;;;;;5099110;27;43081;-77
2023/06/04 05:30:23;;;;;;;;;;;25.40;53.90;;;;;;5101609;27;43021;-74
2023/06/04 05:32:50;;;;;;;;;;;25.40;53.90;;;;;;5094683;27;43067;-74
2023/06/04 05:35:16;;;;;;;;;;;25.40;53.90;;;;;;5098723;27;43124;-75
2023/06/04 05:37:41;;;;;;;;;;;25.30;53.90;;;;;;5098192;27;42848;-76
2023/06/04 05:40:07;;;;;;;;;;;25.30;53.90;;;;;;5103710;27;43258;-75
2023/06/04 05:42:33;;;;;;;;;;;25.40;54.00;;;;;;5096657;27;43552;-77
2023/06/04 05:44:58;;;;;;;;;;;25.40;54.00;;;;;;5096464;27;43072;-77
2023/06/04 05:47:24;;;;;;;;;;;25.30;53.50;;;;;;5101324;27;42970;-77
2023/06/04 05:49:50;;;;;;;;;;;25.30;53.40;;;;;;5097703;27;42882;-76
2023/06/04 05:52:15;;;;;;;;;;;25.30;53.40;;;;;;5100316;27;43611;-78
2023/06/04 05:54:41;;;;;;;;;;;25.40;53.50;;;;;;5099432;27;42922;-78
2023/06/04 05:57:06;;;;;;;;;;;25.40;54.00;;;;;;5105671;27;42907;-78
2023/06/04 05:59:32;;;;;;;;;;;25.30;53.40;;;;;;5099096;27;43585;-76
2023/06/04 06:01:57;;;;;;;;;;;25.40;54.00;;;;;;5105628;27;42985;-75
2023/06/04 06:04:23;;;;;;;;;;;25.40;53.60;;;;;;5099597;27;43068;-76
2023/06/04 06:06:49;;;;;;;;;;;25.40;54.60;;;;;;5100921;27;43115;-77
2023/06/04 06:09:15;;;;;;;;;;;25.30;53.50;;;;;;5094804;27;42984;-76
2023/06/04 06:11:41;;;;;;;;;;;25.40;54.00;;;;;;5104339;27;42835;-76
2023/06/04 06:14:06;;;;;;;;;;;25.30;53.50;;;;;;5090149;27;43730;-76
2023/06/04 06:16:32;;;;;;;;;;;25.40;54.00;;;;;;5103929;27;42983;-76
2023/06/04 06:18:58;;;;;;;;;;;25.30;53.50;;;;;;5090584;27;43382;-77
2023/06/04 06:21:23;;;;;;;;;;;25.40;54.00;;;;;;5093304;27;42916;-77
2023/06/04 06:23:49;;;;;;;;;;;25.40;54.10;;;;;;5100450;27;43686;-75
2023/06/04 06:26:15;;;;;;;;;;;25.30;53.50;;;;;;5092193;27;42921;-75
2023/06/04 06:28:41;;;;;;;;;;;25.40;54.10;;;;;;5100634;27;43049;-76
2023/06/04 06:31:07;;;;;;;;;;;25.40;54.10;;;;;;5093879;27;43081;-75
2023/06/04 06:33:32;;;;;;;;;;;25.40;54.20;;;;;;5084496;27;42939;-76
2023/06/04 06:36:00;;;;;;;;;;;25.40;54.20;;;;;;5085175;27;43021;-75
2023/06/04 06:38:26;;;;;;;;;;;25.30;53.60;;;;;;5083726;27;45022;-76
2023/06/04 06:40:52;;;;;;;;;;;25.40;54.20;;;;;;5095041;27;43172;-75
2023/06/04 06:43:18;;;;;;;;;;;25.40;54.20;;;;;;5097762;27;43531;-77
2023/06/04 06:45:43;;;;;;;;;;;25.40;54.20;;;;;;5085291;27;42913;-76
2023/06/04 06:48:09;;;;;;;;;;;25.40;54.20;;;;;;5084757;27;43597;-76
2023/06/04 06:50:35;;;;;;;;;;;25.30;53.70;;;;;;5084762;27;42981;-76
2023/06/04 06:53:01;;;;;;;;;;;25.40;54.20;;;;;;5101801;27;44521;-76
2023/06/04 06:55:27;;;;;;;;;;;25.40;54.30;;;;;;5093906;27;42910;-75
2023/06/04 06:57:52;;;;;;;;;;;25.40;54.30;;;;;;5097627;27;43393;-76
2023/06/04 07:00:18;;;;;;;;;;;25.30;53.70;;;;;;5085449;27;43076;-76
2023/06/04 07:02:44;;;;;;;;;;;25.30;54.20;;;;;;5066174;28;43831;-77
2023/06/04 07:05:10;;;;;;;;;;;25.40;54.20;;;;;;5085340;27;42927;-75
2023/06/04 07:07:36;;;;;;;;;;;25.40;54.20;;;;;;5084895;27;44698;-76
2023/06/04 07:10:03;;;;;;;;;;;25.40;54.20;;;;;;5085452;27;44193;-76
2023/06/04 07:12:29;;;;;;;;;;;25.40;54.20;;;;;;5088262;27;43038;-75
2023/06/04 07:14:55;;;;;;;;;;;25.40;54.20;;;;;;5087656;27;43037;-76
2023/06/04 07:17:21;;;;;;;;;;;25.40;54.30;;;;;;5086489;27;43428;-75
2023/06/04 07:19:47;;;;;;;;;;;25.30;53.80;;;;;;5097173;27;42883;-76
2023/06/04 07:22:12;;;;;;;;;;;25.40;53.90;;;;;;5100572;27;42981;-76
2023/06/04 07:24:38;;;;;;;;;;;25.40;54.30;;;;;;5088573;27;43141;-77
2023/06/04 07:27:09;;;;;;;;;;;25.40;53.80;;;;;;5088147;27;43822;-76
2023/06/04 07:29:35;;;;;;;;;;;25.40;53.80;;;;;;5100401;27;42815;-75
2023/06/04 07:32:01;;;;;;;;;;;25.40;53.70;;;;;;5107871;27;43073;-77
2023/06/04 07:34:26;;;;;;;;;;;25.40;53.70;;;;;;5096085;27;42945;-76
2023/06/04 07:36:52;;;;;;;;;;;25.40;54.20;;;;;;5093090;27;43652;-77
2023/06/04 07:39:17;;;;;;;;;;;25.40;54.20;;;;;;5107995;27;42806;-76
2023/06/04 07:41:43;;;;;;;;;;;25.30;53.70;;;;;;5102004;27;43738;-75
2023/06/04 07:44:08;;;;;;;;;;;25.40;54.10;;;;;;5087940;27;42993;-76
2023/06/04 07:46:34;;;;;;;;;;;25.40;54.20;;;;;;5100981;27;42940;-76
2023/06/04 07:48:59;;;;;;;;;;;25.40;54.20;;;;;;5088121;27;42870;-76
2023/06/04 07:51:25;;;;;;;;;;;25.40;54.20;;;;;;5087862;27;43720;-76
2023/06/04 07:53:51;;;;;;;;;;;25.40;53.80;;;;;;5086836;27;43100;-75
2023/06/04 07:56:16;;;;;;;;;;;25.40;54.30;;;;;;5087722;27;43381;-75
2023/06/04 07:58:43;;;;;;;;;;;25.40;54.30;;;;;;5099403;27;42886;-76
2023/06/04 08:01:09;;;;;;;;;;;25.30;53.70;;;;;;5089438;27;42944;-76
2023/06/04 08:03:35;;;;;;;;;;;25.40;54.30;;;;;;5087877;27;43046;-76
2023/06/04 08:06:01;;;;;;;;;;;25.40;54.30;;;;;;5100667;27;42887;-76
2023/06/04 08:08:27;;;;;;;;;;;25.40;54.30;;;;;;5086649;27;42957;-76
2023/06/04 08:10:52;;;;;;;;;;;25.40;54.30;;;;;;5105185;27;42930;-76
2023/06/04 08:13:18;;;;;;;;;;;25.40;54.30;;;;;;5077272;28;43049;-75
2023/06/04 08:15:43;;;;;;;;;;;25.40;54.30;;;;;;5087073;27;44307;-76
2023/06/04 08:18:09;;;;;;;;;;;25.40;54.30;;;;;;5094900;27;43001;-75
2023/06/04 08:20:34;;;;;;;;;;;25.40;54.30;;;;;;5103890;27;42928;-77
2023/06/04 08:22:59;;;;;;;;;;;25.40;54.30;;;;;;5075495;28;43152;-76
2023/06/04 08:25:25;;;;;;;;;;;25.40;54.40;;;;;;5101004;27;43584;-76
2023/06/04 08:27:53;;;;;;;;;;;25.40;54.40;;;;;;5087888;27;42985;-75
2023/06/04 08:30:19;;;;;;;;;;;25.30;53.80;;;;;;5104736;27;43273;-75
2023/06/04 08:32:44;;;;;;;;;;;25.40;54.30;;;;;;5095621;27;43027;-76
2023/06/04 08:35:10;;;;;;;;;;;25.40;53.90;;;;;;5086449;27;43468;-76
2023/06/04 08:37:36;;;;;;;;;;;25.30;53.80;;;;;;5097753;27;42919;-75
2023/06/04 08:40:01;;;;;;;;;;;25.40;54.30;;;;;;5105966;27;42913;-75
2023/06/04 08:42:30;;;;;;;;;;;25.40;54.30;;;;;;5095516;27;43019;-76
2023/06/04 08:44:56;;;;;;;;;;;25.40;54.30;;;;;;5086773;27;42896;-76
2023/06/04 08:47:23;;;;;;;;;;;25.40;54.30;;;;;;5086853;27;42966;-75
2023/06/04 08:49:50;;;;;;;;;;;25.40;54.20;;;;;;5088240;27;43634;-76
2023/06/04 08:52:16;;;;;;;;;;;25.40;54.30;;;;;;5098660;27;43052;-76
2023/06/04 08:54:41;;;;;;;;;;;25.40;54.30;;;;;;5105772;27;43228;-77
2023/06/04 08:57:08;;;;;;;;;;;25.40;54.30;;;;;;5094124;27;43056;-76
2023/06/04 08:59:34;;;;;;;;;;;25.40;54.20;;;;;;5099599;27;43789;-76
2023/06/04 09:02:00;;;;;;;;;;;25.40;54.20;;;;;;5087235;27;43100;-76
2023/06/04 09:04:25;;;;;;;;;;;25.40;54.30;;;;;;5087540;27;42987;-75
2023/06/04 09:06:52;;;;;;;;;;;25.40;53.80;;;;;;5087557;27;43007;-75
2023/06/04 09:09:18;;;;;;;;;;;25.30;53.70;;;;;;5087337;27;43802;-76
2023/06/04 09:11:44;;;;;;;;;;;25.40;54.20;;;;;;5093902;27;42867;-76
2023/06/04 09:14:11;;;;;;;;;;;25.40;54.20;;;;;;5092142;27;44308;-76
2023/06/04 09:16:43;;;;;;;;;;;25.40;54.20;;;;;;5105265;27;42982;-76
2023/06/04 09:19:09;;;;;;;;;;;25.40;54.10;;;;;;5087236;27;42968;-76
2023/06/04 09:21:45;;;;;;;;;;;25.40;54.10;;;;;;5098062;27;42972;-76
2023/06/04 09:24:10;;;;;;;;;;;25.40;54.00;;;;;;5087033;27;43632;-77
2023/06/04 09:26:36;;;;;;;;;;;25.40;54.00;;;;;;5088075;27;43091;-78
2023/06/04 09:29:05;;;;;;;;;;;25.40;53.60;;;;;;5093440;27;43558;-77
2023/06/04 09:31:36;;;;;;;;;;;25.40;54.10;;;;;;5091768;27;42939;-76
2023/06/04 09:34:02;;;;;;;;;;;25.40;54.10;;;;;;5085609;27;43049;-76
2023/06/04 09:36:31;;;;;;;;;;;25.40;54.10;;;;;;5088088;27;42904;-76
2023/06/04 09:38:57;;;;;;;;;;;25.40;53.70;;;;;;5105707;27;42949;-77
2023/06/04 09:41:22;;;;;;;;;;;25.40;53.70;;;;;;5089649;27;42995;-77
2023/06/04 09:43:48;;;;;;;;;;;25.40;53.70;;;;;;5085861;27;43088;-76
2023/06/04 09:46:15;;;;;;;;;;;25.40;54.30;;;;;;5099964;27;42843;-76
2023/06/04 09:48:41;;;;;;;;;;;25.40;53.80;;;;;;5094870;27;42927;-77
2023/06/04 09:51:19;;;;;;;;;;;25.30;53.70;;;;;;5073987;27;42819;-76
2023/06/04 09:53:58;;;;;;;;;;;25.40;53.70;;;;;;5104975;27;43133;-78
2023/06/04 09:56:23;;;;;;;;;;;25.40;54.20;;;;;;5092033;27;42969;-76
2023/06/04 09:58:49;;;;;;;;;;;25.40;54.20;;;;;;5092454;27;42969;-77
2023/06/04 10:01:15;;;;;;;;;;;25.30;54.20;;;;;;5098899;27;42922;-77
2023/06/04 10:03:43;;;;;;;;;;;25.40;54.20;;;;;;5099155;27;43508;-76
2023/06/04 10:06:08;;;;;;;;;;;25.30;54.10;;;;;;5099514;27;43058;-76
2023/06/04 10:08:34;;;;;;;;;;;25.40;53.80;;;;;;5067378;28;42806;-77
2023/06/04 10:11:03;;;;;;;;;;;25.30;54.30;;;;;;5099296;27;42936;-76
2023/06/04 10:13:38;;;;;;;;;;;25.40;53.80;;;;;;5085282;27;43369;-76
2023/06/04 10:16:05;;;;;;;;;;;25.40;54.20;;;;;;5093635;27;42855;-78
2023/06/04 10:18:31;;;;;;;;;;;25.30;54.10;;;;;;5071942;27;44403;-77
2023/06/04 10:20:57;;;;;;;;;;;25.40;54.20;;;;;;5094306;27;43162;-78
2023/06/04 10:23:23;;;;;;;;;;;25.40;54.20;;;;;;5103174;27;43587;-78
2023/06/04 10:25:50;;;;;;;;;;;25.40;54.10;;;;;;5098092;27;43005;-78
2023/06/04 10:28:17;;;;;;;;;;;25.40;53.70;;;;;;5085620;27;43755;-78
2023/06/04 10:30:43;;;;;;;;;;;25.30;53.60;;;;;;5105051;27;43008;-78
2023/06/04 10:33:12;;;;;;;;;;;25.40;54.10;;;;;;5089235;27;42992;-77
2023/06/04 10:35:38;;;;;;;;;;;25.30;54.00;;;;;;5085223;27;42997;-78
2023/06/04 10:38:11;;;;;;;;;;;25.30;53.50;;;;;;5086600;27;43207;-78
2023/06/04 10:40:37;;;;;;;;;;;25.40;54.10;;;;;;5094074;27;43062;-78
2023/06/04 10:43:12;;;;;;;;;;;25.30;54.00;;;;;;5087450;27;43385;-78
2023/06/04 10:45:38;;;;;;;;;;;25.40;54.00;;;;;;5093214;27;43550;-77
2023/06/04 10:48:05;;;;;;;;;;;25.40;53.50;;;;;;5097553;27;44493;-78
2023/06/04 10:50:35;;;;;;;;;;;25.40;54.00;;;;;;5084822;27;43003;-79
2023/06/04 10:53:03;;;;;;;;;;;25.40;54.00;;;;;;5097595;27;43060;-78
2023/06/04 10:55:29;;;;;;;;;;;25.40;54.00;;;;;;5084756;27;43024;-78
2023/06/04 10:57:58;;;;;;;;;;;25.40;53.50;;;;;;5085106;27;43045;-77
2023/06/04 11:00:43;;;;;;;;;;;25.40;53.90;;;;;;5085242;27;43153;-78
2023/06/04 11:03:10;;;;;;;;;;;25.30;53.40;;;;;;5083856;27;43148;-78
2023/06/04 11:05:46;;;;;;;;;;;25.40;53.90;;;;;;5097705;27;43046;-78
2023/06/04 11:08:13;;;;;;;;;;;25.40;53.90;;;;;;5084948;27;42961;-77
2023/06/04 11:10:44;;;;;;;;;;;25.30;53.40;;;;;;5088443;27;42954;-77
2023/06/04 11:13:10;;;;;;;;;;;25.30;53.80;;;;;;5104595;27;43442;-77
2023/06/04 11:15:38;;;;;;;;;;;25.30;53.30;;;;;;5085713;27;42953;-77
2023/06/04 11:18:05;;;;;;;;;;;25.40;53.80;;;;;;5096550;27;44679;-78
2023/06/04 11:20:30;;;;;;;;;;;25.30;53.20;;;;;;5085922;27;43037;-78
2023/06/04 11:22:56;;;;;;;;;;;25.30;53.20;;;;;;5095688;27;43721;-77
2023/06/04 11:25:23;;;;;;;;;;;25.40;53.80;;;;;;5099436;27;43218;-77
2023/06/04 11:27:49;;;;;;;;;;;25.20;53.20;;;;;;5077698;27;43773;-78
2023/06/04 11:30:15;;;;;;;;;;;25.40;53.40;;;;;;5091678;27;43034;-77
2023/06/04 11:32:41;;;;;;;;;;;25.40;53.80;;;;;;5104438;27;43497;-76
2023/06/04 11:35:07;;;;;;;;;;;25.40;53.90;;;;;;5103796;27;42985;-78
2023/06/04 11:37:33;;;;;;;;;;;25.40;53.80;;;;;;5104107;27;43413;-76
2023/06/04 11:40:00;;;;;;;;;;;25.40;53.80;;;;;;5103570;27;43001;-76
2023/06/04 11:42:29;;;;;;;;;;;25.40;53.70;;;;;;5093971;27;43096;-77
2023/06/04 11:44:57;;;;;;;;;;;25.40;53.70;;;;;;5101235;27;43029;-76
2023/06/04 11:47:23;;;;;;;;;;;25.40;53.60;;;;;;5092435;27;43024;-76
2023/06/04 11:49:56;;;;;;;;;;;25.40;53.60;;;;;;5097582;27;42859;-76
2023/06/04 11:52:21;;;;;;;;;;;25.40;53.70;;;;;;5096105;27;42949;-77
2023/06/04 11:54:47;;;;;;;;;;;25.40;53.20;;;;;;5084883;27;42956;-77
2023/06/04 11:57:12;;;;;;;;;;;25.40;54.20;;;;;;5085095;27;42914;-76
2023/06/04 11:59:38;;;;;;;;;;;25.40;53.20;;;;;;5087686;27;42999;-78
2023/06/04 12:02:05;;;;;;;;;;;25.40;53.60;;;;;;5087864;27;43951;-76
2023/06/04 12:04:31;;;;;;;;;;;25.40;53.60;;;;;;5087732;27;42882;-76
2023/06/04 12:06:58;;;;;;;;;;;25.40;53.10;;;;;;5099478;27;43533;-77
2023/06/04 12:09:27;;;;;;;;;;;25.40;53.60;;;;;;5100267;27;42965;-76
2023/06/04 12:11:57;;;;;;;;;;;25.40;53.50;;;;;;5086900;27;43307;-77
2023/06/04 12:14:23;;;;;;;;;;;25.40;53.10;;;;;;5087794;27;42741;-76
2023/06/04 12:16:58;;;;;;;;;;;25.40;53.60;;;;;;5087362;27;43017;-77
2023/06/04 12:19:24;;;;;;;;;;;25.40;53.50;;;;;;5087142;27;42991;-77
2023/06/04 12:22:01;;;;;;;;;;;25.40;53.60;;;;;;5086042;27;43760;-77
2023/06/04 12:24:27;;;;;;;;;;;25.40;53.00;;;;;;5087403;27;42938;-77
2023/06/04 12:27:03;;;;;;;;;;;25.40;53.50;;;;;;5086758;27;43905;-77
2023/06/04 12:29:29;;;;;;;;;;;25.40;53.00;;;;;;5097936;27;42979;-77
2023/06/04 12:32:01;;;;;;;;;;;25.40;53.50;;;;;;5086814;27;43367;-76
2023/06/04 12:34:27;;;;;;;;;;;25.40;53.40;;;;;;5088305;27;43057;-76
2023/06/04 12:36:52;;;;;;;;;;;25.40;53.50;;;;;;5088596;27;43009;-78
2023/06/04 12:39:18;;;;;;;;;;;25.40;53.50;;;;;;5087209;27;42955;-78
2023/06/04 12:41:47;;;;;;;;;;;25.40;53.40;;;;;;5099386;27;43043;-78
2023/06/04 12:44:12;;;;;;;;;;;25.40;53.40;;;;;;5100497;27;43045;-77
2023/06/04 12:46:38;;;;;;;;;;;25.40;53.40;;;;;;5088835;27;43399;-76
2023/06/04 12:49:03;;;;;;;;;;;25.40;53.00;;;;;;5091818;27;42928;-76
2023/06/04 12:51:29;;;;;;;;;;;25.40;53.40;;;;;;5087283;27;42965;-76
2023/06/04 12:53:54;;;;;;;;;;;25.40;53.00;;;;;;5086170;27;42974;-76
2023/06/04 12:56:20;;;;;;;;;;;25.40;52.90;;;;;;5091400;27;42928;-78
2023/06/04 12:58:46;;;;;;;;;;;25.40;53.40;;;;;;5100229;27;43033;-77
2023/06/04 13:01:12;;;;;;;;;;;25.40;53.40;;;;;;5091307;27;43097;-76
2023/06/04 13:03:39;;;;;;;;;;;25.40;53.40;;;;;;5100926;27;43049;-76
2023/06/04 13:06:05;;;;;;;;;;;25.40;53.40;;;;;;5095839;27;44038;-76
2023/06/04 13:08:31;;;;;;;;;;;25.40;52.90;;;;;;5089282;27;42890;-75
2023/06/04 13:10:57;;;;;;;;;;;22.20;51.20;;;;;;5081961;27;42919;-76
2023/06/04 13:13:22;;;;;;;;;;;25.30;52.80;;;;;;5094412;27;43063;-78
2023/06/04 13:15:48;;;;;;;;;;;25.40;53.40;;;;;;5094809;27;42981;-78
2023/06/04 13:18:13;;;;;;;;;;;25.40;53.40;;;;;;5094462;27;42946;-78
2023/06/04 13:20:39;;;;;;;;;;;25.40;52.90;;;;;;5099134;27;43119;-78
2023/06/04 13:23:05;;;;;;;;;;;25.40;53.40;;;;;;5092594;27;42957;-76
2023/06/04 13:25:33;;;;;;;;;;;25.40;53.30;;;;;;5087523;27;45293;-76
2023/06/04 13:28:02;;;;;;;;;;;25.40;53.40;;;;;;5092848;27;42920;-78
2023/06/04 13:30:27;;;;;;;;;;;25.40;52.90;;;;;;5100477;27;43998;-76
2023/06/04 13:32:53;;;;;;;;;;;25.40;53.30;;;;;;5098732;27;43006;-77
2023/06/04 13:35:19;;;;;;;;;;;25.40;53.30;;;;;;5100157;27;43271;-77
2023/06/04 13:37:45;;;;;;;;;;;25.40;53.30;;;;;;5086112;27;42811;-77
2023/06/04 13:40:10;;;;;;;;;;;25.40;52.90;;;;;;5098609;27;42860;-77
2023/06/04 13:42:36;;;;;;;;;;;25.40;53.30;;;;;;5086242;27;43001;-77
2023/06/04 13:45:01;;;;;;;;;;;25.40;53.30;;;;;;5086080;27;43441;-76
2023/06/04 13:47:27;;;;;;;;;;;25.40;53.30;;;;;;5086158;27;43291;-77
2023/06/04 13:49:53;;;;;;;;;;;25.40;52.80;;;;;;5091487;27;43019;-77
2023/06/04 13:52:18;;;;;;;;;;;25.40;52.80;;;;;;5093129;27;42976;-78
2023/06/04 13:54:43;;;;;;;;;;;25.40;52.80;;;;;;5086239;27;43875;-77
2023/06/04 13:57:12;;;;;;;;;;;25.40;53.30;;;;;;5086156;27;42908;-77
2023/06/04 13:59:38;;;;;;;;;;;25.40;53.30;;;;;;5098805;27;42982;-77
2023/06/04 14:02:03;;;;;;;;;;;25.40;53.30;;;;;;5086111;27;42981;-78
2023/06/04 14:04:29;;;;;;;;;;;25.40;53.30;;;;;;5086672;27;42784;-78
2023/06/04 14:06:55;;;;;;;;;;;25.40;53.30;;;;;;5085999;27;43324;-77
2023/06/04 14:09:20;;;;;;;;;;;25.40;53.30;;;;;;5085649;27;42997;-78
2023/06/04 14:11:50;;;;;;;;;;;25.40;52.80;;;;;;5098388;27;42798;-78